Time;durP1;ratioP1;P1;durP2;ratioP2;P2;SDS_P1;SDS_P2;PMS_P1;PMS_P2;Temp;Humidity;BMP_temperature;BMP_pressure;BME280_temperature;BME280_humidity;BME280_pressure;Samples;Min_cycle;Max_cycle;Signal;HPM_P1;HPM_P2
2022/01/16 00:00:55;;;;;;;30.98;16.27;;;;;;;4.90;89.32;101557.78;5002914;28;20503;-75
2022/01/16 00:06:13;;;;;;;26.00;15.30;;;;;;;4.94;89.62;101564.34;5001507;28;20044;-77
2022/01/16 00:08:40;;;;;;;22.42;13.88;;;;;;;4.99;89.82;101566.22;4986917;28;20050;-77
2022/01/16 00:11:07;;;;;;;26.67;13.80;;;;;;;5.04;90.06;101558.75;5003700;28;20104;-77
2022/01/16 00:13:34;;;;;;;24.60;13.48;;;;;;;5.11;89.66;101548.25;5004505;28;20036;-77
2022/01/16 00:16:01;;;;;;;29.27;17.35;;;;;;;5.14;90.31;101561.41;4985198;28;20057;-77
2022/01/16 00:18:40;;;;;;;30.42;14.00;;;;;;;5.19;90.19;101555.84;5003909;28;20048;-75
2022/01/16 00:21:06;;;;;;;26.40;14.05;;;;;;;5.23;90.04;101567.09;5003564;28;20034;-75
2022/01/16 00:23:33;;;;;;;24.88;14.88;;;;;;;5.25;90.05;101565.69;4985796;28;20052;-75
2022/01/16 00:26:00;;;;;;;25.83;15.32;;;;;;;5.27;90.31;101557.97;4985176;28;20042;-75
2022/01/16 00:28:26;;;;;;;25.02;13.10;;;;;;;5.29;90.40;101544.81;4988084;28;20389;-75
2022/01/16 00:30:53;;;;;;;23.23;12.27;;;;;;;5.32;90.40;101552.44;5003588;28;20084;-75
2022/01/16 00:33:20;;;;;;;26.27;13.50;;;;;;;5.33;90.56;101551.34;4977510;28;20081;-75
2022/01/16 00:35:47;;;;;;;22.65;12.25;;;;;;;5.36;90.31;101552.69;4990726;28;20046;-75
2022/01/16 00:38:14;;;;;;;22.40;10.90;;;;;;;5.38;90.93;101548.53;4994238;28;20129;-75
2022/01/16 00:40:41;;;;;;;19.15;9.90;;;;;;;5.42;90.77;101544.09;4992572;28;20115;-75
2022/01/16 00:43:08;;;;;;;20.80;10.55;;;;;;;5.45;91.17;101548.19;4994157;28;20048;-75
2022/01/16 00:45:35;;;;;;;26.08;10.98;;;;;;;5.46;90.97;101539.66;4994687;28;20493;-75
2022/01/16 00:48:04;;;;;;;16.17;9.32;;;;;;;5.48;91.14;101542.91;4995068;28;20117;-75
2022/01/16 00:50:33;;;;;;;22.48;9.77;;;;;;;5.50;90.99;101546.22;4992997;28;20089;-75
2022/01/16 00:53:00;;;;;;;16.45;9.02;;;;;;;5.51;91.06;101556.06;4993932;28;20041;-75
2022/01/16 00:55:27;;;;;;;18.63;10.23;;;;;;;5.52;91.48;101554.97;4975596;28;20042;-75
2022/01/16 00:57:54;;;;;;;25.23;10.98;;;;;;;5.56;91.56;101559.88;4991581;28;20051;-75
2022/01/16 01:00:25;;;;;;;19.48;10.30;;;;;;;5.56;91.51;101560.69;4994198;28;20056;-75
2022/01/16 01:02:54;;;;;;;26.70;11.38;;;;;;;5.58;91.70;101552.16;4993260;28;20038;-75
2022/01/16 01:05:21;;;;;;;22.05;9.85;;;;;;;5.59;91.58;101562.06;4975756;28;20038;-75
2022/01/16 01:07:47;;;;;;;22.17;9.23;;;;;;;5.62;91.52;101569.69;4993688;28;20136;-75
2022/01/16 01:10:33;;;;;;;19.48;9.75;;;;;;;5.62;91.64;101578.75;4993029;28;20038;-75
2022/01/16 01:13:23;;;;;;;18.23;10.05;;;;;;;5.64;92.12;101575.72;4992289;28;20343;-75
2022/01/16 01:15:58;;;;;;;19.20;10.68;;;;;;;5.65;91.82;101560.88;4993105;28;20046;-75
2022/01/16 01:18:25;;;;;;;20.83;10.10;;;;;;;5.64;92.15;101556.50;4991251;28;20055;-75
2022/01/16 01:20:53;;;;;;;19.58;9.93;;;;;;;5.67;92.01;101562.22;4960419;28;20089;-75
2022/01/16 01:23:19;;;;;;;14.43;9.93;;;;;;;5.68;92.02;101547.38;4993746;28;20046;-75
2022/01/16 01:25:46;;;;;;;20.52;9.88;;;;;;;5.69;91.99;101539.94;4974990;28;20050;-75
2022/01/16 01:28:13;;;;;;;16.95;8.65;;;;;;;5.69;92.12;101562.75;4993214;28;20441;-75
2022/01/16 01:30:42;;;;;;;17.77;9.00;;;;;;;5.68;92.12;101552.03;4993591;28;20045;-75
2022/01/16 01:33:09;;;;;;;14.75;9.10;;;;;;;5.69;92.02;101526.22;4999161;28;20046;-75
2022/01/16 01:35:39;;;;;;;19.20;9.75;;;;;;;5.69;92.36;101534.47;5003494;28;20034;-75
2022/01/16 01:38:08;;;;;;;17.45;8.90;;;;;;;5.69;92.13;101532.53;4982777;28;20050;-75
2022/01/16 01:40:36;;;;;;;20.00;9.30;;;;;;;5.70;92.43;101555.31;4970246;28;20456;-75
2022/01/16 01:51:32;;;;;;;15.88;9.38;;;;;;;5.69;92.48;101556.44;5006499;28;20046;-75
2022/01/16 01:54:00;;;;;;;13.77;8.90;;;;;;;5.68;92.36;101530.88;4987523;28;20042;-75
2022/01/16 01:56:28;;;;;;;19.75;9.18;;;;;;;5.68;92.34;101500.66;4986859;28;20072;-75
2022/01/16 01:58:57;;;;;;;15.40;8.40;;;;;;;5.66;92.21;101434.22;5003909;28;20052;-75
2022/01/16 02:01:25;;;;;;;16.83;9.02;;;;;;;5.66;92.52;101458.13;5006182;28;20133;-74
2022/01/16 02:03:54;;;;;;;15.63;8.38;;;;;;;5.62;92.37;101482.59;5006356;28;20049;-75
2022/01/16 02:06:22;;;;;;;20.35;8.98;;;;;;;5.60;92.02;101484.00;5006555;28;20119;-75
2022/01/16 02:08:53;;;;;;;13.18;7.80;;;;;;;5.53;92.12;101496.16;5005153;28;20039;-75
2022/01/16 02:11:27;;;;;;;14.20;8.18;;;;;;;5.50;91.88;101537.16;5005034;28;20042;-75
2022/01/16 02:14:05;;;;;;;13.18;7.80;;;;;;;5.44;91.93;101541.06;5005993;28;20045;-75
2022/01/16 02:28:14;;;;;;;17.80;8.05;;;;;;;5.21;92.22;101592.09;5004366;28;20132;-75
2022/01/16 02:36:32;;;;;;;14.23;8.05;;;;;;;5.14;92.17;101607.25;5003459;28;20132;-75
2022/01/16 02:39:01;;;;;;;18.95;9.75;;;;;;;5.10;92.09;101615.25;5005936;28;20080;-75
2022/01/16 02:41:27;;;;;;;14.80;8.35;;;;;;;5.09;92.24;101601.78;5004465;28;20048;-75
2022/01/16 02:43:56;;;;;;;16.55;9.25;;;;;;;5.05;92.30;101617.22;5006524;28;20049;-74
2022/01/16 02:48:49;;;;;;;16.80;9.07;;;;;;;5.02;92.61;101623.28;5003481;28;20256;-75
2022/01/16 02:51:18;;;;;;;19.63;9.70;;;;;;;5.00;92.52;101609.84;5003811;28;20072;-75
2022/01/16 02:53:47;;;;;;;20.98;9.60;;;;;;;4.99;92.85;101630.16;5005310;28;20112;-75
2022/01/16 02:56:15;;;;;;;15.35;9.63;;;;;;;4.98;92.68;101619.47;4988020;28;20038;-75
2022/01/16 02:58:43;;;;;;;19.88;9.32;;;;;;;4.98;92.83;101628.50;5003839;28;20478;-75
2022/01/16 03:01:11;;;;;;;26.13;10.13;;;;;;;4.99;92.75;101616.44;5002060;28;20124;-75
2022/01/16 03:03:39;;;;;;;18.05;10.05;;;;;;;5.01;92.95;101625.19;5004395;28;20072;-75
2022/01/16 03:06:06;;;;;;;16.00;8.65;;;;;;;5.03;93.19;101617.47;5004534;28;20053;-75
2022/01/16 03:08:33;;;;;;;21.13;11.05;;;;;;;5.04;93.26;101608.16;5005045;28;20501;-75
2022/01/16 03:13:32;;;;;;;24.23;10.77;;;;;;;5.11;93.54;101625.09;5005161;28;20482;-75
2022/01/16 03:15:59;;;;;;;19.05;10.13;;;;;;;5.13;93.56;101617.41;5004753;28;20508;-75
2022/01/16 03:23:42;;;;;;;16.27;10.13;;;;;;;5.17;93.83;101599.25;4987279;28;20052;-74
2022/01/16 03:26:09;;;;;;;18.33;10.35;;;;;;;5.18;94.41;101594.59;4987292;28;20065;-74
2022/01/16 03:28:36;;;;;;;18.45;9.65;;;;;;;5.18;94.13;101592.66;5003508;28;20078;-74
2022/01/16 03:31:02;;;;;;;19.77;10.30;;;;;;;5.17;94.00;101610.22;5005063;28;20037;-75
2022/01/16 03:33:29;;;;;;;17.52;10.23;;;;;;;5.16;94.11;101600.38;5003905;28;20650;-75
2022/01/16 03:35:56;;;;;;;18.25;10.02;;;;;;;5.13;94.45;101620.16;5005739;28;20042;-75
2022/01/16 03:38:23;;;;;;;21.90;11.13;;;;;;;5.10;94.32;101620.75;5003562;28;20049;-75
2022/01/16 03:40:49;;;;;;;22.33;11.27;;;;;;;5.08;94.76;101609.22;5003772;28;20042;-75
2022/01/16 03:43:16;;;;;;;23.20;12.25;;;;;;;5.05;94.71;101598.81;5004969;28;20397;-74
2022/01/16 03:45:45;;;;;;;17.45;10.38;;;;;;;5.05;94.81;101603.50;5004824;28;20512;-75
2022/01/16 03:48:16;;;;;;;19.83;10.57;;;;;;;5.04;94.95;101597.19;4985837;28;20040;-74
2022/01/16 03:50:43;;;;;;;18.83;11.40;;;;;;;5.04;94.81;101591.69;5000379;28;20485;-74
2022/01/16 03:53:10;;;;;;;21.23;11.50;;;;;;;5.04;94.64;101597.19;5004110;28;20481;-75
2022/01/16 03:55:37;;;;;;;24.95;11.48;;;;;;;5.06;94.60;101605.09;5002923;28;20052;-75
2022/01/16 03:58:04;;;;;;;21.77;11.20;;;;;;;5.06;95.14;101610.59;4983049;28;20456;-75
2022/01/16 04:00:31;;;;;;;22.23;12.20;;;;;;;5.08;94.86;101598.25;5002952;28;20064;-75
2022/01/16 04:02:58;;;;;;;21.13;12.23;;;;;;;5.11;94.99;101607.84;5002864;28;20038;-74
2022/01/16 04:05:24;;;;;;;23.80;12.40;;;;;;;5.11;95.05;101614.13;5002185;28;20076;-75
2022/01/16 04:07:51;;;;;;;24.15;13.10;;;;;;;5.12;95.17;101625.94;5004468;28;20077;-75
2022/01/16 04:10:21;;;;;;;27.15;14.25;;;;;;;5.13;94.73;101617.41;5001595;28;20042;-74
2022/01/16 04:12:48;;;;;;;26.33;13.35;;;;;;;5.13;95.21;101625.66;5004896;28;20069;-75
2022/01/16 04:17:42;;;;;;;21.63;11.55;;;;;;;5.10;95.30;101628.97;5004127;28;20388;-75
2022/01/16 04:20:09;;;;;;;18.52;10.95;;;;;;;5.09;95.30;101632.81;4985074;28;20041;-75
2022/01/16 04:22:36;;;;;;;22.92;11.32;;;;;;;5.06;95.23;101627.88;5004559;28;20108;-74
2022/01/16 04:25:03;;;;;;;20.40;12.60;;;;;;;5.04;94.91;101630.09;5004217;28;20547;-74
2022/01/16 04:27:29;;;;;;;23.75;12.98;;;;;;;5.02;95.31;101629.59;5002841;28;20042;-75
2022/01/16 04:29:56;;;;;;;21.10;13.07;;;;;;;5.01;94.92;101641.66;5002293;28;20056;-75
2022/01/16 04:32:23;;;;;;;25.17;13.25;;;;;;;5.01;94.83;101640.84;5000441;28;20135;-75
2022/01/16 04:34:50;;;;;;;26.42;13.27;;;;;;;4.99;95.02;101643.88;4985302;28;20080;-75
2022/01/16 04:37:17;;;;;;;21.20;11.80;;;;;;;5.00;95.15;101648.28;5003547;28;20042;-75
2022/01/16 04:39:50;;;;;;;20.23;12.45;;;;;;;5.01;95.45;101632.59;5003813;28;20049;-75
2022/01/16 04:45:04;;;;;;;22.30;14.13;;;;;;;5.05;95.73;101623.53;5003761;28;20504;-75
2022/01/16 04:47:32;;;;;;;17.35;10.93;;;;;;;5.06;95.79;101641.63;4984371;28;20049;-75
2022/01/16 04:49:58;;;;;;;24.23;12.52;;;;;;;5.08;95.98;101636.69;5001971;28;20062;-75
2022/01/16 04:52:25;;;;;;;22.95;11.73;;;;;;;5.10;95.98;101645.44;4983911;28;20046;-75
2022/01/16 04:54:52;;;;;;;22.55;12.27;;;;;;;5.11;96.01;101638.81;4984016;28;20052;-75
2022/01/16 04:57:18;;;;;;;22.05;13.75;;;;;;;5.16;96.22;101643.47;5001081;28;20108;-74
2022/01/16 04:59:45;;;;;;;20.13;12.27;;;;;;;5.18;96.34;101653.06;4984966;28;20573;-75
2022/01/16 05:02:12;;;;;;;22.15;12.38;;;;;;;5.22;95.97;101639.56;5003476;28;20042;-75
2022/01/16 05:04:39;;;;;;;21.50;11.80;;;;;;;5.23;96.42;101647.53;5003146;28;20061;-75
2022/01/16 05:07:06;;;;;;;23.33;12.98;;;;;;;5.25;96.42;101647.22;5004092;28;20046;-75
2022/01/16 05:09:33;;;;;;;21.13;13.13;;;;;;;5.27;96.31;101645.03;4984991;28;20125;-75
2022/01/16 05:12:02;;;;;;;18.73;11.85;;;;;;;5.29;96.10;101654.63;5004092;28;20165;-74
2022/01/16 05:17:15;;;;;;;22.08;11.90;;;;;;;5.32;96.16;101654.00;5006523;28;20469;-75
2022/01/16 05:19:42;;;;;;;22.88;12.75;;;;;;;5.32;96.02;101643.03;5007369;28;20049;-74
2022/01/16 05:22:08;;;;;;;20.25;12.13;;;;;;;5.33;96.52;101647.44;4990182;28;20030;-74
2022/01/16 05:24:35;;;;;;;19.17;11.35;;;;;;;5.34;96.66;101646.34;5005968;28;20045;-74
2022/01/16 05:27:04;;;;;;;20.77;11.32;;;;;;;5.36;96.25;101649.59;5006455;28;20046;-75
2022/01/16 05:29:31;;;;;;;18.92;11.82;;;;;;;5.38;96.47;101644.63;5007134;28;20038;-75
2022/01/16 05:31:58;;;;;;;24.80;13.38;;;;;;;5.39;96.43;101638.03;5006790;28;20066;-75
2022/01/16 05:34:26;;;;;;;26.60;13.30;;;;;;;5.39;96.71;101640.78;5004309;28;20513;-74
2022/01/16 05:36:53;;;;;;;23.77;12.02;;;;;;;5.39;96.65;101638.03;5006674;28;20050;-75
2022/01/16 05:39:20;;;;;;;18.80;11.60;;;;;;;5.39;96.76;101640.78;5006580;28;20104;-74
2022/01/16 05:41:47;;;;;;;26.08;12.80;;;;;;;5.40;96.99;101650.66;5007261;28;20133;-75
2022/01/16 05:44:14;;;;;;;20.45;12.25;;;;;;;5.44;96.61;101648.16;5006766;28;20034;-75
2022/01/16 05:46:41;;;;;;;25.13;12.60;;;;;;;5.45;96.13;101658.84;5007596;28;20052;-75
2022/01/16 05:49:08;;;;;;;19.70;11.18;;;;;;;5.46;96.58;101660.50;5006993;28;20466;-74
2022/01/16 05:51:35;;;;;;;22.98;11.45;;;;;;;5.47;96.85;101659.38;5008042;28;20104;-75
2022/01/16 05:54:02;;;;;;;20.42;12.10;;;;;;;5.49;96.83;101670.91;5003912;28;20076;-74
2022/01/16 05:56:28;;;;;;;19.85;11.05;;;;;;;5.50;96.92;101667.06;5006174;28;20149;-75
2022/01/16 05:58:55;;;;;;;23.45;11.77;;;;;;;5.51;97.18;101656.88;5004539;28;20561;-74
2022/01/16 06:01:22;;;;;;;22.23;11.73;;;;;;;5.53;97.47;101662.91;5006754;28;20053;-74
2022/01/16 06:03:49;;;;;;;23.35;12.52;;;;;;;5.56;97.52;101658.75;5005117;28;20477;-74
2022/01/16 06:06:16;;;;;;;21.92;11.07;;;;;;;5.56;97.56;101665.06;5005289;28;20045;-74
2022/01/16 06:08:43;;;;;;;22.67;12.63;;;;;;;5.58;97.44;101673.03;5006410;28;20042;-74
2022/01/16 06:11:10;;;;;;;21.02;12.35;;;;;;;5.58;97.88;101679.34;5006121;28;20046;-75
2022/01/16 06:13:36;;;;;;;23.13;12.60;;;;;;;5.60;97.83;101690.84;5006421;28;20038;-75
2022/01/16 06:16:03;;;;;;;22.60;12.02;;;;;;;5.62;97.77;101701.53;5005335;28;20046;-75
2022/01/16 06:18:31;;;;;;;29.40;13.98;;;;;;;5.63;97.61;101708.69;4987187;28;21007;-75
2022/01/16 06:20:57;;;;;;;28.38;14.70;;;;;;;5.63;97.65;101709.50;5006637;28;20038;-75
2022/01/16 06:23:24;;;;;;;29.73;14.27;;;;;;;5.64;97.99;101716.63;5003837;28;20196;-75
2022/01/16 06:25:54;;;;;;;25.70;14.15;;;;;;;5.64;98.35;101724.88;5006046;28;20044;-74
2022/01/16 06:28:25;;;;;;;22.50;12.65;;;;;;;5.66;98.33;101728.16;5005670;28;20048;-75
2022/01/16 06:30:52;;;;;;;29.58;14.35;;;;;;;5.68;98.10;101745.16;5005037;28;20129;-75
2022/01/16 06:33:19;;;;;;;24.08;14.63;;;;;;;5.70;97.96;101747.63;4986916;28;20140;-74
2022/01/16 06:35:46;;;;;;;29.67;14.80;;;;;;;5.71;97.96;101747.34;5006065;28;20080;-75
2022/01/16 06:38:13;;;;;;;29.67;15.23;;;;;;;5.73;98.21;101758.03;5005097;28;20034;-74
2022/01/16 06:40:39;;;;;;;22.88;13.85;;;;;;;5.76;98.07;101762.97;5004784;28;20056;-74
2022/01/16 06:43:06;;;;;;;27.50;15.02;;;;;;;5.77;98.22;101770.91;4985559;28;20458;-74
2022/01/16 06:45:33;;;;;;;26.00;14.23;;;;;;;5.80;98.10;101780.53;5004961;28;20133;-74
2022/01/16 06:48:00;;;;;;;25.50;15.07;;;;;;;5.82;98.32;101783.78;4985899;28;20117;-74
2022/01/16 06:50:26;;;;;;;26.58;14.50;;;;;;;5.83;98.32;101785.41;5005500;28;20133;-74
2022/01/16 06:52:53;;;;;;;25.05;14.38;;;;;;;5.85;98.49;101783.25;5005619;28;20030;-74
2022/01/16 06:55:20;;;;;;;25.45;14.10;;;;;;;5.85;98.69;101783.25;5005579;28;20033;-75
2022/01/16 06:57:47;;;;;;;25.50;13.38;;;;;;;5.87;98.43;101792.84;4985109;28;20033;-75
2022/01/16 07:00:13;;;;;;;22.65;12.57;;;;;;;5.89;98.70;101798.03;5004650;28;20046;-74
2022/01/16 07:02:40;;;;;;;26.50;13.30;;;;;;;5.90;98.38;101808.78;5004920;28;20084;-74
2022/01/16 07:05:08;;;;;;;29.48;14.07;;;;;;;5.93;98.55;101812.88;4987164;28;20046;-75
2022/01/16 07:07:35;;;;;;;21.75;12.05;;;;;;;5.94;98.63;101817.25;5003803;28;20964;-75
2022/01/16 07:10:03;;;;;;;21.48;12.32;;;;;;;5.97;98.55;101830.41;5003922;28;20096;-74
2022/01/16 07:12:30;;;;;;;17.80;12.18;;;;;;;5.99;98.41;101839.19;4989444;28;20065;-75
2022/01/16 07:14:57;;;;;;;20.67;11.98;;;;;;;6.00;98.27;101841.66;5005466;28;20501;-75
2022/01/16 07:17:24;;;;;;;18.83;11.50;;;;;;;6.04;98.86;101863.88;4987706;28;20077;-74
2022/01/16 07:19:51;;;;;;;24.42;11.55;;;;;;;6.07;98.88;101860.56;4987052;28;20124;-75
2022/01/16 07:22:21;;;;;;;17.40;10.52;;;;;;;6.11;98.68;101869.88;5004088;28;20053;-75
2022/01/16 07:24:50;;;;;;;17.88;10.48;;;;;;;6.14;98.74;101885.81;4986657;28;20065;-75
2022/01/16 07:27:17;;;;;;;19.27;10.70;;;;;;;6.17;98.74;101903.66;5003855;28;20141;-75
2022/01/16 07:29:44;;;;;;;18.20;9.52;;;;;;;6.18;98.70;101903.34;5004625;28;20048;-74
2022/01/16 07:32:11;;;;;;;19.40;9.65;;;;;;;6.20;98.39;101906.63;5005024;28;20046;-74
2022/01/16 07:34:38;;;;;;;17.98;10.18;;;;;;;6.23;98.39;101905.22;5003452;28;20049;-74
2022/01/16 07:37:05;;;;;;;24.00;11.60;;;;;;;6.23;98.68;101900.56;5004096;28;20052;-74
2022/01/16 07:39:31;;;;;;;17.42;9.93;;;;;;;6.25;98.72;101909.34;5004058;28;20120;-74
2022/01/16 07:41:58;;;;;;;19.40;8.95;;;;;;;6.26;98.40;101927.50;5004545;28;20444;-75
2022/01/16 07:44:25;;;;;;;12.65;8.82;;;;;;;6.24;98.25;101926.97;4985821;28;20474;-74
2022/01/16 07:46:52;;;;;;;18.45;9.07;;;;;;;6.26;98.36;101937.66;5004719;28;20041;-75
2022/01/16 07:49:18;;;;;;;11.85;8.43;;;;;;;6.26;98.12;101952.25;5005173;28;20045;-74
2022/01/16 07:51:45;;;;;;;11.52;6.45;;;;;;;6.25;98.27;101953.34;5004452;28;20085;-75
2022/01/16 07:54:12;;;;;;;14.40;8.57;;;;;;;6.24;98.05;101956.38;5004018;28;20042;-74
2022/01/16 07:56:39;;;;;;;14.40;7.28;;;;;;;6.22;97.83;101956.69;5003308;28;20042;-74
2022/01/16 07:59:05;;;;;;;12.25;6.82;;;;;;;6.21;97.66;101963.28;5003737;28;20125;-74
2022/01/16 08:01:32;;;;;;;12.52;6.45;;;;;;;6.21;97.46;101966.03;5004044;28;20131;-74
2022/01/16 08:03:59;;;;;;;10.02;6.43;;;;;;;6.22;97.65;101969.59;5004223;28;20966;-75
2022/01/16 08:06:31;;;;;;;10.20;6.47;;;;;;;6.21;97.61;101978.94;4982740;28;20379;-74
2022/01/16 08:08:58;;;;;;;10.38;5.55;;;;;;;6.21;97.46;101973.44;5002655;28;20041;-75
2022/01/16 08:11:25;;;;;;;13.85;5.55;;;;;;;6.21;97.58;101978.94;4984050;28;20052;-74
2022/01/16 08:13:52;;;;;;;12.00;5.88;;;;;;;6.22;97.37;101992.44;4983638;28;20076;-75
2022/01/16 08:16:19;;;;;;;9.93;5.10;;;;;;;6.21;97.36;101973.44;4982757;28;20038;-75
2022/01/16 08:18:46;;;;;;;10.50;4.93;;;;;;;6.21;97.20;101984.44;5004205;28;20591;-74
2022/01/16 08:21:12;;;;;;;11.95;4.53;;;;;;;6.21;97.11;101990.78;5003752;28;20034;-75
2022/01/16 08:23:39;;;;;;;7.72;4.63;;;;;;;6.20;96.95;101997.38;5002688;28;20057;-75
2022/01/16 08:26:06;;;;;;;6.85;3.83;;;;;;;6.19;96.77;101993.00;5003433;28;20072;-75
2022/01/16 08:28:33;;;;;;;6.60;4.07;;;;;;;6.20;96.80;102007.53;5000684;28;20133;-75
2022/01/16 08:31:00;;;;;;;11.55;4.63;;;;;;;6.20;96.84;102008.38;5003073;28;20038;-75
2022/01/16 08:33:27;;;;;;;7.47;4.47;;;;;;;6.20;96.45;102026.78;5004318;28;20076;-75
2022/01/16 08:35:54;;;;;;;11.15;3.83;;;;;;;6.20;96.83;102044.13;4985895;28;20089;-74
2022/01/16 08:38:22;;;;;;;8.15;4.07;;;;;;;6.22;96.52;102049.34;4984923;28;20067;-75
2022/01/16 08:40:50;;;;;;;6.82;3.30;;;;;;;6.20;96.11;102043.28;5003301;28;20033;-75
2022/01/16 08:43:17;;;;;;;14.13;2.42;;;;;;;6.20;96.06;102066.13;5002107;28;20034;-75
2022/01/16 08:45:44;;;;;;;9.80;4.53;;;;;;;6.21;96.05;102066.94;5002453;28;20033;-75
2022/01/16 08:48:11;;;;;;;10.23;3.10;;;;;;;6.21;95.74;102089.78;4984971;28;20046;-75
2022/01/16 08:50:38;;;;;;;13.93;4.68;;;;;;;6.23;95.94;102089.47;5008415;28;20048;-74
2022/01/16 08:53:06;;;;;;;7.70;2.60;;;;;;;6.23;95.94;102106.81;5004715;28;20135;-75
2022/01/16 08:55:34;;;;;;;8.23;3.03;;;;;;;6.23;95.77;102104.06;5006862;28;20042;-75
2022/01/16 08:58:02;;;;;;;4.28;2.00;;;;;;;6.24;95.54;102091.97;5007468;28;20054;-74
2022/01/16 09:00:29;;;;;;;6.97;2.78;;;;;;;6.25;95.65;102101.03;5008041;28;21987;-75
2022/01/16 09:02:57;;;;;;;9.02;1.95;;;;;;;6.23;95.37;102104.06;5007612;28;20040;-75
2022/01/16 09:05:25;;;;;;;8.93;2.58;;;;;;;6.24;95.38;102108.47;5005856;28;20038;-75
2022/01/16 09:07:53;;;;;;;7.72;2.10;;;;;;;6.25;95.26;102126.59;4988881;28;20080;-75
2022/01/16 09:10:20;;;;;;;8.18;2.10;;;;;;;6.25;94.82;102129.34;5006260;28;20069;-75
2022/01/16 09:12:46;;;;;;;13.63;3.90;;;;;;;6.27;94.79;102138.16;5003999;28;20054;-74
2022/01/16 09:15:14;;;;;;;13.85;2.67;;;;;;;6.28;95.02;102139.78;5005940;28;20411;-76
2022/01/16 09:17:43;;;;;;;12.57;3.05;;;;;;;6.29;95.12;102146.94;4999081;28;20096;-75
2022/01/16 09:20:13;;;;;;;11.68;3.15;;;;;;;6.30;94.72;102165.06;4988086;28;20044;-76
2022/01/16 09:22:43;;;;;;;12.25;3.10;;;;;;;6.30;94.79;102165.06;4985919;28;20034;-76
2022/01/16 09:25:13;;;;;;;9.70;2.75;;;;;;;6.32;94.63;102173.88;4987230;28;20136;-77
2022/01/16 09:27:41;;;;;;;7.95;2.88;;;;;;;6.33;94.64;102172.75;5005516;28;21907;-77
2022/01/16 09:30:10;;;;;;;11.32;4.53;;;;;;;6.37;94.65;102181.28;5001972;28;20046;-77
2022/01/16 09:32:37;;;;;;;12.77;3.50;;;;;;;6.38;94.74;102183.72;5006286;28;20077;-76
2022/01/16 09:35:06;;;;;;;10.45;3.40;;;;;;;6.40;94.52;102198.03;5007014;28;20100;-76
2022/01/16 09:37:33;;;;;;;12.45;3.40;;;;;;;6.41;94.52;102213.44;4988487;28;20046;-76
2022/01/16 09:40:00;;;;;;;15.82;3.70;;;;;;;6.43;94.17;102207.66;5004648;28;20038;-76
2022/01/16 09:42:28;;;;;;;11.13;2.92;;;;;;;6.45;94.12;102214.53;5007029;28;20049;-76
2022/01/16 09:44:55;;;;;;;10.55;2.67;;;;;;;6.46;94.01;102232.66;4987776;28;20052;-76
2022/01/16 09:47:22;;;;;;;16.08;2.80;;;;;;;6.47;94.01;102245.31;5006564;28;20048;-75
2022/01/16 09:49:49;;;;;;;9.43;2.40;;;;;;;6.48;93.85;102241.47;5006498;28;20120;-76
2022/01/16 09:52:17;;;;;;;17.05;3.47;;;;;;;6.48;93.51;102246.97;5005410;28;20041;-76
2022/01/16 09:54:44;;;;;;;6.20;2.40;;;;;;;6.47;93.03;102253.56;4986700;28;20116;-75
2022/01/16 09:57:12;;;;;;;11.55;2.83;;;;;;;6.47;93.04;102253.56;5005459;28;20042;-75
2022/01/16 09:59:39;;;;;;;18.08;3.67;;;;;;;6.46;92.43;102265.66;5006353;28;20104;-75
2022/01/16 10:02:06;;;;;;;15.68;3.15;;;;;;;6.48;92.48;102265.41;5005305;28;20030;-75
2022/01/16 10:04:33;;;;;;;12.93;2.97;;;;;;;6.48;92.25;102271.75;5003861;28;20121;-75
2022/01/16 10:07:03;;;;;;;12.73;2.33;;;;;;;6.50;92.15;102275.03;5007165;28;20034;-75
2022/01/16 10:09:31;;;;;;;8.40;2.25;;;;;;;6.52;91.51;102278.31;5004219;28;20069;-75
2022/01/16 10:12:13;;;;;;;12.48;3.15;;;;;;;6.55;91.66;102283.25;5006394;28;20034;-75
2022/01/16 10:14:47;;;;;;;18.10;3.63;;;;;;;6.57;91.88;102283.78;5005463;28;20128;-78
2022/01/16 10:17:16;;;;;;;16.13;2.50;;;;;;;6.54;91.23;102289.06;4987714;28;20038;-76
2022/01/16 10:19:44;;;;;;;16.13;3.70;;;;;;;6.56;91.53;102300.59;5006511;28;20038;-76
2022/01/16 10:22:14;;;;;;;14.13;3.13;;;;;;;6.58;91.06;102312.13;5004512;28;20196;-75
2022/01/16 10:24:41;;;;;;;11.90;2.50;;;;;;;6.58;90.92;102321.22;5005255;28;20410;-76
2022/01/16 10:27:08;;;;;;;13.80;2.70;;;;;;;6.59;90.50;102325.59;5004048;28;20042;-76
2022/01/16 10:29:44;;;;;;;15.93;3.33;;;;;;;6.59;90.25;102333.06;5005862;28;20572;-76
2022/01/16 10:32:21;;;;;;;14.90;3.72;;;;;;;6.59;90.12;102344.06;5006786;28;20392;-76
2022/01/16 10:35:14;;;;;;;16.63;3.10;;;;;;;6.58;90.06;102348.75;4986928;28;20068;-77
2022/01/16 10:37:46;;;;;;;9.18;3.35;;;;;;;6.61;89.52;102352.88;4982004;28;20078;-77
2022/01/16 10:40:14;;;;;;;10.40;3.47;;;;;;;6.67;90.18;102363.56;5007192;28;20861;-77
2022/01/16 10:42:48;;;;;;;22.17;3.80;;;;;;;6.72;89.37;102374.56;5002971;28;20044;-76
2022/01/16 10:45:17;;;;;;;16.85;4.78;;;;;;;6.73;88.72;102381.72;5005885;28;20064;-77
2022/01/16 10:47:51;;;;;;;15.93;3.22;;;;;;;6.72;88.26;102377.31;5004678;28;20045;-77
2022/01/16 10:50:20;;;;;;;23.48;3.22;;;;;;;6.74;88.17;102377.88;5006396;28;20545;-77
2022/01/16 10:53:00;;;;;;;12.27;3.20;;;;;;;6.73;88.08;102389.16;5004993;28;20056;-76
2022/01/16 10:55:30;;;;;;;11.95;3.00;;;;;;;6.75;88.31;102397.97;4987656;28;20445;-77
2022/01/16 10:58:11;;;;;;;14.63;4.60;;;;;;;6.75;87.89;102398.75;5005398;28;20041;-77
2022/01/16 11:00:42;;;;;;;15.82;3.95;;;;;;;6.76;87.68;102410.59;5002845;28;20056;-77
2022/01/16 11:03:12;;;;;;;14.18;2.85;;;;;;;6.75;86.91;102409.78;5005161;28;20096;-76
2022/01/16 11:05:43;;;;;;;20.60;5.32;;;;;;;6.78;86.98;102410.34;5004085;28;20485;-77
2022/01/16 11:08:13;;;;;;;19.35;3.97;;;;;;;6.82;86.45;102412.25;4986553;28;20034;-77
2022/01/16 11:10:41;;;;;;;22.00;6.60;;;;;;;6.85;86.16;102410.88;5004317;28;20034;-77
2022/01/16 11:13:15;;;;;;;16.60;4.78;;;;;;;6.84;85.45;102404.53;5004059;28;20030;-77
2022/01/16 11:15:54;;;;;;;20.05;6.75;;;;;;;6.80;84.56;102405.38;4987826;28;20168;-77
2022/01/16 11:18:22;;;;;;;17.23;5.32;;;;;;;6.79;84.91;102411.97;4984807;28;20091;-77
2022/01/16 11:21:08;;;;;;;22.63;4.40;;;;;;;6.75;84.33;102414.47;5003757;28;20053;-77
2022/01/16 11:23:48;;;;;;;21.08;3.92;;;;;;;6.76;84.67;102424.38;5001004;28;20528;-77
2022/01/16 11:26:22;;;;;;;13.07;3.45;;;;;;;6.75;83.87;102422.75;5004531;28;20400;-77
2022/01/16 11:28:53;;;;;;;15.80;2.92;;;;;;;6.75;83.27;102417.22;5004792;28;20702;-77
2022/01/16 11:31:21;;;;;;;19.23;4.03;;;;;;;6.78;83.82;102424.09;5003111;28;20041;-77
2022/01/16 11:33:48;;;;;;;15.88;2.72;;;;;;;6.81;83.38;102423.53;5003446;28;20058;-76
2022/01/16 11:36:24;;;;;;;12.80;3.83;;;;;;;6.84;82.30;102433.97;5004404;28;20113;-78
2022/01/16 11:38:57;;;;;;;15.77;2.33;;;;;;;6.86;79.96;102431.81;5004853;28;20064;-77
2022/01/16 11:41:32;;;;;;;19.08;3.88;;;;;;;6.96;81.39;102426.25;5002472;28;20525;-77
2022/01/16 11:44:07;;;;;;;19.80;4.63;;;;;;;7.06;80.01;102423.47;4985656;28;20125;-77
2022/01/16 11:46:41;;;;;;;18.73;4.28;;;;;;;7.16;79.67;102417.91;4970251;28;20045;-77
2022/01/16 11:49:13;;;;;;;13.45;3.00;;;;;;;7.25;80.45;102416.22;4983785;28;20050;-77
2022/01/16 11:51:40;;;;;;;;;;;;;;;7.22;77.59;102416.78;5003657;28;20388;-77
2022/01/16 11:54:22;;;;;;;16.70;4.10;;;;;;;7.15;79.29;102419.00;5003705;28;19929;-77
2022/01/16 11:57:00;;;;;;;18.37;3.30;;;;;;;7.03;78.56;102405.56;5003207;28;20084;-76
2022/01/16 11:59:30;;;;;;;25.88;3.60;;;;;;;6.89;77.80;102403.69;5004831;28;20389;-77
2022/01/16 12:01:59;;;;;;;19.13;4.22;;;;;;;6.86;78.63;102399.56;4985354;28;20092;-77
2022/01/16 12:04:31;;;;;;;17.73;4.53;;;;;;;6.86;77.74;102404.28;5002401;28;20049;-77
2022/01/16 12:07:02;;;;;;;17.30;3.45;;;;;;;6.86;77.95;102407.81;5003769;28;20037;-77
2022/01/16 12:10:01;;;;;;;12.15;3.33;;;;;;;6.86;75.67;102409.78;5003855;28;20169;-77
2022/01/16 12:12:28;;;;;;;21.33;3.55;;;;;;;6.86;76.29;102407.03;4985500;28;20433;-76
2022/01/16 12:15:00;;;;;;;12.63;3.00;;;;;;;6.87;77.05;102409.47;4985193;28;20046;-77